Time;durP1;ratioP1;P1;durP2;ratioP2;P2;SDS_P1;SDS_P2;PMS_P1;PMS_P2;Temp;Humidity;BMP_temperature;BMP_pressure;BME280_temperature;BME280_humidity;BME280_pressure;Samples;Min_cycle;Max_cycle;Signal;HPM_P1;HPM_P2
2023/12/03 00:00:39;;;;;;;;;35.50;28.50;;;;;11.04;35.58;101683.22;5014516;28;45575;-77
2023/12/03 00:03:06;;;;;;;;;38.67;32.67;;;;;10.97;35.45;101679.00;5014036;28;46492;-76
2023/12/03 00:05:31;;;;;;;;;35.75;30.00;;;;;10.93;35.40;101691.63;5014328;28;45374;-77
2023/12/03 00:07:57;;;;;;;;;43.00;32.50;;;;;10.97;35.51;101692.41;5014358;28;45335;-76
2023/12/03 00:10:23;;;;;;;;;38.00;33.00;;;;;11.04;35.39;101693.97;5014386;28;45527;-77
2023/12/03 00:12:48;;;;;;;;;37.33;35.67;;;;;10.99;35.67;101695.91;5013841;28;46310;-76
2023/12/03 00:15:14;;;;;;;;;35.00;33.00;;;;;10.78;35.89;101696.59;5014138;28;45329;-76
2023/12/03 00:17:39;;;;;;;;;42.00;35.67;;;;;10.86;35.97;101700.78;5014067;28;45380;-79
2023/12/03 00:20:05;;;;;;;;;42.67;34.33;;;;;10.92;35.99;101692.53;5013827;28;53626;-78
2023/12/03 00:22:30;;;;;;;;;39.67;37.67;;;;;10.97;35.72;101698.63;5013908;28;46047;-77
2023/12/03 00:24:56;;;;;;;;;36.67;29.00;;;;;10.96;35.90;101696.91;5014186;28;45309;-78
2023/12/03 00:27:21;;;;;;;;;42.00;35.67;;;;;10.95;35.59;101686.22;5014056;28;45772;-77
2023/12/03 00:29:47;;;;;;;;;49.00;35.33;;;;;10.97;35.93;101697.78;5016075;28;45501;-76
2023/12/03 05:30:05;;;;;;;;;47.00;39.33;;;;;9.76;39.55;101613.91;5021478;28;45509;-77
2023/12/03 05:32:30;;;;;;;;;53.67;43.67;;;;;9.74;39.34;101607.69;5015882;28;45397;-74
2023/12/03 05:34:56;;;;;;;;;42.67;42.67;;;;;9.77;39.52;101615.66;5016658;28;48842;-76
2023/12/03 05:37:21;;;;;;;;;43.67;38.67;;;;;9.86;38.85;101626.09;5016093;28;56727;-77
2023/12/03 05:39:46;;;;;;;;;41.00;34.00;;;;;9.84;39.21;101620.78;5016543;28;45484;-76
2023/12/03 05:42:13;;;;;;;;;49.00;35.00;;;;;9.96;39.04;101619.53;5026451;28;50291;-77
2023/12/03 05:44:38;;;;;;;;;42.33;34.67;;;;;10.04;38.85;101612.16;5016199;28;45517;-78
2023/12/03 05:47:04;;;;;;;;;48.00;37.67;;;;;9.93;38.89;101600.00;5016495;28;46022;-76
2023/12/03 05:49:29;;;;;;;;;56.67;42.00;;;;;9.99;39.03;101600.69;5016037;28;45230;-77
2023/12/03 05:51:54;;;;;;;;;58.67;43.67;;;;;10.12;38.99;101614.63;5016432;28;45246;-76
2023/12/03 05:54:20;;;;;;;;;37.33;35.67;;;;;10.09;39.03;101615.59;5016156;28;45595;-75
2023/12/03 05:56:45;;;;;;;;;42.67;37.67;;;;;10.01;38.79;101614.06;5016009;28;46267;-78
2023/12/03 05:59:11;;;;;;;;;61.33;41.00;;;;;10.04;39.02;101628.22;4998306;28;45421;-77
2023/12/03 06:01:37;;;;;;;;;41.67;41.00;;;;;10.09;39.41;101620.06;5016136;28;45227;-76
2023/12/03 06:04:06;;;;;;;;;53.67;41.33;;;;;10.07;39.13;101609.38;5015872;28;45435;-77
2023/12/03 06:06:36;;;;;;;;;45.00;41.00;;;;;10.06;39.20;101615.66;5017290;28;46075;-75
2023/12/03 06:09:03;;;;;;;;;49.67;42.33;;;;;10.07;39.34;101624.59;5024148;28;45222;-76
2023/12/03 06:11:29;;;;;;;;;47.33;34.33;;;;;10.04;39.35;101609.47;5024143;28;45388;-77
2023/12/03 06:13:55;;;;;;;;;43.33;37.67;;;;;10.11;39.03;101624.47;5027745;28;45387;-76
2023/12/03 06:16:21;;;;;;;;;47.67;42.67;;;;;9.95;39.54;101616.94;5016567;28;46607;-76
2023/12/03 06:18:47;;;;;;;;;46.67;41.67;;;;;9.94;39.61;101605.34;5015700;28;45370;-75
2023/12/03 06:21:12;;;;;;;;;54.67;43.67;;;;;9.95;39.45;101611.56;5016625;28;45297;-76
2023/12/03 06:23:37;;;;;;;;;45.00;37.67;;;;;9.85;39.68;101602.91;5015759;28;52855;-77
2023/12/03 06:26:03;;;;;;;;;48.33;41.67;;;;;9.79;39.79;101603.94;5016434;28;45353;-77
2023/12/03 06:28:28;;;;;;;;;48.67;34.67;;;;;9.74;39.95;101610.38;5015916;28;45310;-77
2023/12/03 06:30:53;;;;;;;;;51.67;42.67;;;;;9.65;40.21;101600.81;5009534;28;64114;-80
2023/12/03 06:33:19;;;;;;;;;44.00;36.33;;;;;9.74;39.99;101607.69;4996322;28;45383;-77
2023/12/03 06:35:45;;;;;;;;;45.00;38.00;;;;;9.74;39.75;101597.88;4995643;28;45381;-77
2023/12/03 06:38:11;;;;;;;;;49.33;41.67;;;;;9.60;39.96;101597.41;4996224;28;45230;-75
2023/12/03 06:40:37;;;;;;;;;47.67;42.00;;;;;9.65;40.59;101602.59;5000166;28;45368;-75
2023/12/03 06:43:03;;;;;;;;;34.00;31.67;;;;;9.69;40.15;101604.28;5001930;28;45437;-77
2023/12/03 06:45:28;;;;;;;;;39.33;34.67;;;;;9.76;39.88;101609.41;4995735;28;47316;-76
2023/12/03 06:47:53;;;;;;;;;51.67;41.00;;;;;9.78;40.29;101617.41;4995433;28;48194;-78
2023/12/03 06:50:18;;;;;;;;;54.33;38.00;;;;;9.74;40.31;101616.63;4978258;28;54064;-76
2023/12/03 06:52:44;;;;;;;;;32.67;28.67;;;;;9.80;39.80;101615.53;4995552;28;45367;-76
2023/12/03 06:55:09;;;;;;;;;36.00;32.00;;;;;9.81;40.06;101614.63;4995349;28;45398;-76
2023/12/03 06:57:34;;;;;;;;;40.33;37.00;;;;;9.56;39.94;101566.25;4995284;28;45420;-76
2023/12/03 07:00:00;;;;;;;;;56.67;40.67;;;;;9.80;39.87;101615.53;4995366;28;45346;-77
2023/12/03 07:02:25;;;;;;;;;51.00;39.67;;;;;9.92;40.08;101608.97;4995005;28;45361;-77
2023/12/03 07:04:51;;;;;;;;;41.00;37.00;;;;;9.96;40.01;101613.28;4977422;28;46622;-75
2023/12/03 07:07:16;;;;;;;;;41.75;34.75;;;;;10.03;39.37;101601.50;4995352;28;45409;-76
2023/12/03 07:09:42;;;;;;;;;39.00;37.33;;;;;9.97;39.78;101598.97;4994839;28;53777;-77
2023/12/03 07:12:08;;;;;;;;;45.67;37.00;;;;;10.00;40.11;101618.53;4977370;28;45422;-76
2023/12/03 07:14:33;;;;;;;;;45.67;34.33;;;;;9.97;39.45;101591.81;4994798;28;45938;-77
2023/12/03 07:16:58;;;;;;;;;28.67;23.33;;;;;10.02;39.62;101605.09;4995137;28;45577;-77
2023/12/03 07:19:24;;;;;;;;;40.67;37.67;;;;;10.11;39.52;101615.53;4994508;28;54526;-76
2023/12/03 07:21:49;;;;;;;;;47.67;35.00;;;;;10.17;39.32;101616.25;4995010;28;45156;-77
2023/12/03 07:24:15;;;;;;;;;43.33;32.67;;;;;10.19;39.44;101618.91;4977164;28;45911;-76
2023/12/03 07:26:44;;;;;;;;;46.67;38.67;;;;;9.99;39.79;101602.50;4995000;28;45367;-78
2023/12/03 07:29:10;;;;;;;;;42.33;39.33;;;;;9.91;39.73;101597.38;4995002;28;45361;-76
2023/12/03 07:31:35;;;;;;;;;50.00;36.00;;;;;10.09;39.48;101610.22;5007149;28;45302;-77
2023/12/03 07:34:00;;;;;;;;;42.33;33.33;;;;;10.32;39.61;101628.31;5014190;28;45361;-76
2023/12/03 07:36:26;;;;;;;;;44.00;40.67;;;;;10.27;39.05;101622.22;5014354;28;56347;-77
2023/12/03 07:38:51;;;;;;;;;37.33;32.67;;;;;10.18;39.43;101603.75;5013869;28;45464;-76
2023/12/03 07:41:16;;;;;;;;;39.33;36.67;;;;;10.28;39.16;101609.69;5014518;28;45475;-78
2023/12/03 07:43:42;;;;;;;;;46.33;36.33;;;;;10.24;39.47;101609.78;4982337;28;66556;-75
2023/12/03 07:46:07;;;;;;;;;45.67;37.33;;;;;10.32;39.48;101606.88;5014604;28;45373;-77
2023/12/03 07:48:33;;;;;;;;;47.00;43.33;;;;;10.43;39.46;101614.59;5014238;28;45401;-78
2023/12/03 07:50:58;;;;;;;;;35.67;29.33;;;;;10.24;39.41;101611.59;5014584;28;45231;-76
2023/12/03 07:53:24;;;;;;;;;52.67;35.00;;;;;10.30;39.20;101606.03;5014382;28;45356;-78
2023/12/03 07:55:50;;;;;;;;;42.33;36.33;;;;;10.27;39.24;101613.31;5014330;28;45318;-75
2023/12/03 07:58:15;;;;;;;;;36.67;33.00;;;;;10.22;39.05;101574.13;5014429;28;45396;-77
2023/12/03 08:00:40;;;;;;;;;42.00;39.00;;;;;10.35;39.47;101593.38;5014453;28;45258;-76
2023/12/03 08:03:06;;;;;;;;;43.67;35.67;;;;;10.43;39.17;101610.09;5014146;28;45306;-76
2023/12/03 08:05:31;;;;;;;;;49.33;36.00;;;;;10.48;39.32;101597.41;4996702;28;45329;-75
2023/12/03 08:07:57;;;;;;;;;41.00;37.67;;;;;10.54;38.83;101594.56;5014534;28;45237;-78
2023/12/03 08:10:22;;;;;;;;;44.67;39.67;;;;;10.46;39.21;101574.28;4996791;28;45984;-76
2023/12/03 08:12:47;;;;;;;;;36.00;33.00;;;;;10.51;39.19;101591.09;5014241;28;46017;-77
2023/12/03 08:15:13;;;;;;;;;39.00;34.67;;;;;10.44;38.83;101565.41;5014634;28;45483;-77
2023/12/03 08:17:38;;;;;;;;;37.00;34.00;;;;;10.42;38.82;101556.53;5013940;28;45241;-76
2023/12/03 08:20:05;;;;;;;;;45.00;37.67;;;;;10.47;39.14;101582.25;5029445;28;45803;-77
2023/12/03 08:22:31;;;;;;;;;40.67;30.33;;;;;10.54;38.66;101589.19;5013977;28;46285;-76
2023/12/03 08:24:56;;;;;;;;;43.00;34.33;;;;;10.49;38.56;101580.41;5014262;28;45297;-78
2023/12/03 08:27:22;;;;;;;;;27.33;27.33;;;;;10.51;39.12;101591.97;5014302;28;45331;-76
2023/12/03 08:29:47;;;;;;;;;43.67;33.33;;;;;10.60;39.01;101588.09;5009116;28;45663;-76
2023/12/03 08:32:13;;;;;;;;;31.00;26.00;;;;;10.51;38.95;101573.19;5011259;28;45661;-76
2023/12/03 08:34:39;;;;;;;;;44.00;38.00;;;;;10.51;38.97;101593.75;4996113;28;45325;-75
2023/12/03 08:37:04;;;;;;;;;40.67;37.33;;;;;10.38;38.95;101573.66;5014109;28;45228;-78
2023/12/03 08:39:30;;;;;;;;;41.00;31.33;;;;;10.26;39.29;101555.28;5014230;28;45532;-77
2023/12/03 08:41:55;;;;;;;;;39.67;34.00;;;;;10.31;38.80;101566.72;5009405;28;45424;-75
2023/12/03 08:44:20;;;;;;;;;38.00;33.33;;;;;10.47;39.20;101565.28;5004816;28;53465;-80
2023/12/03 08:46:46;;;;;;;;;33.67;26.67;;;;;10.53;38.75;101578.50;5013739;28;48201;-77
2023/12/03 08:49:11;;;;;;;;;40.67;38.00;;;;;10.53;38.83;101571.34;5028604;28;55181;-77
2023/12/03 08:51:38;;;;;;;;;39.25;32.25;;;;;10.63;38.65;101579.09;5016994;28;45414;-75
2023/12/03 08:54:03;;;;;;;;;45.67;36.00;;;;;10.70;38.64;101567.25;5017402;28;45371;-77
2023/12/03 08:56:29;;;;;;;;;38.50;31.25;;;;;10.78;38.66;101571.41;5017738;28;45645;-78
2023/12/03 08:58:54;;;;;;;;;43.00;38.00;;;;;10.68;38.38;101569.09;5017153;28;45399;-76
2023/12/03 09:01:20;;;;;;;;;33.00;31.25;;;;;10.67;38.08;101568.22;5017033;28;45414;-76
2023/12/03 09:03:45;;;;;;;;;46.00;31.33;;;;;10.70;38.15;101554.72;5016913;28;45317;-77
2023/12/03 09:06:13;;;;;;;;;34.33;31.00;;;;;10.80;38.59;101552.59;5017293;28;45387;-76
2023/12/03 09:08:38;;;;;;;;;40.00;32.67;;;;;10.71;38.47;101577.03;5017083;28;45487;-78
2023/12/03 09:11:06;;;;;;;;;34.75;27.00;;;;;10.30;38.83;101565.81;5016794;28;45436;-75
2023/12/03 09:13:32;;;;;;;;;39.00;32.33;;;;;10.36;38.49;101544.22;5016873;28;45251;-77
2023/12/03 09:15:58;;;;;;;;;28.50;26.75;;;;;10.49;38.33;101563.44;4999251;28;45239;-77
2023/12/03 09:18:23;;;;;;;;;37.50;28.50;;;;;10.56;38.19;101562.31;5016540;28;45534;-76
2023/12/03 09:20:48;;;;;;;;;38.33;32.67;;;;;10.34;38.70;101559.47;5032238;28;45415;-77
2023/12/03 09:23:14;;;;;;;;;36.33;30.33;;;;;10.34;38.35;101553.22;5032357;28;45463;-76
2023/12/03 09:25:40;;;;;;;;;44.00;35.33;;;;;10.35;38.51;101565.69;5016759;28;50258;-76
2023/12/03 09:28:05;;;;;;;;;33.50;24.50;;;;;9.97;39.05;101532.00;5017060;28;45360;-78
2023/12/03 09:30:30;;;;;;;;;28.75;23.25;;;;;10.08;38.92;101513.81;5010175;28;45451;-77
2023/12/03 09:32:56;;;;;;;;;37.50;29.00;;;;;10.27;38.88;101559.72;4998781;28;45449;-78
2023/12/03 09:35:21;;;;;;;;;37.50;29.75;;;;;10.30;38.45;101552.44;5016863;28;46063;-77
2023/12/03 09:37:46;;;;;;;;;32.25;29.75;;;;;10.20;38.52;101543.84;5017019;28;45542;-76
2023/12/03 09:40:12;;;;;;;;;40.00;35.00;;;;;10.35;38.69;101557.66;5016661;28;46165;-77
2023/12/03 09:42:44;;;;;;;;;34.00;30.67;;;;;10.37;38.78;101553.13;5021715;28;45472;-78
2023/12/03 09:45:12;;;;;;;;;39.25;37.25;;;;;10.48;38.66;101537.56;5014319;28;45341;-77
2023/12/03 09:47:37;;;;;;;;;33.50;30.75;;;;;10.62;37.93;101538.00;5016208;28;45595;-79
2023/12/03 09:50:06;;;;;;;;;41.00;32.75;;;;;10.68;37.98;101544.94;5016091;28;46146;-77
2023/12/03 09:52:36;;;;;;;;;32.25;29.25;;;;;10.65;38.19;101569.19;5016464;28;45364;-76
2023/12/03 09:55:02;;;;;;;;;35.00;31.00;;;;;10.78;37.97;101567.84;4998242;28;45328;-77
2023/12/03 09:57:31;;;;;;;;;31.75;27.75;;;;;10.50;38.32;101576.81;4998304;28;47341;-76
2023/12/03 09:59:57;;;;;;;;;28.25;24.75;;;;;10.53;38.39;101565.09;5015925;28;46136;-78
2023/12/03 10:02:26;;;;;;;;;28.75;20.50;;;;;10.45;38.23;101549.28;5015331;28;46354;-76
2023/12/03 10:04:52;;;;;;;;;36.67;24.33;;;;;10.45;38.56;101567.16;5016195;28;45411;-76
2023/12/03 10:07:21;;;;;;;;;35.25;32.50;;;;;10.42;38.62;101567.25;5016010;28;45252;-76
2023/12/03 10:09:48;;;;;;;;;35.00;33.50;;;;;10.17;39.00;101532.28;5015998;28;46634;-76
2023/12/03 10:12:16;;;;;;;;;35.33;29.00;;;;;10.30;38.54;101556.91;5015812;28;45405;-76
2023/12/03 10:14:43;;;;;;;;;37.33;29.33;;;;;10.45;38.55;101554.63;5016103;28;45529;-76
2023/12/03 10:17:08;;;;;;;;;39.25;31.25;;;;;10.58;38.45;101560.47;5015692;28;45326;-77
2023/12/03 10:19:34;;;;;;;;;33.67;32.00;;;;;10.58;38.49;101549.75;5015843;28;46063;-77
2023/12/03 10:22:00;;;;;;;;;38.00;30.25;;;;;10.71;38.46;101543.06;4998026;28;45177;-76
2023/12/03 10:24:26;;;;;;;;;27.00;24.00;;;;;10.83;37.98;101550.66;5015885;28;45500;-78
2023/12/03 10:26:53;;;;;;;;;40.00;31.75;;;;;11.00;38.13;101545.59;5015617;28;45269;-77
2023/12/03 10:29:25;;;;;;;;;35.00;32.00;;;;;10.95;37.55;101534.16;5014587;28;46147;-76
2023/12/03 10:31:51;;;;;;;;;36.50;30.50;;;;;10.97;37.81;101539.47;5010561;28;45381;-77
2023/12/03 10:34:17;;;;;;;;;36.50;33.25;;;;;11.02;37.99;101542.88;5015521;28;45448;-76
2023/12/03 10:36:43;;;;;;;;;34.00;26.25;;;;;10.91;37.64;101519.09;4997824;28;47075;-76
2023/12/03 10:39:09;;;;;;;;;33.25;29.75;;;;;11.06;37.71;101540.97;5015591;28;46632;-77
2023/12/03 10:41:34;;;;;;;;;28.50;27.00;;;;;11.00;37.63;101528.63;5025747;28;45530;-77
2023/12/03 10:44:00;;;;;;;;;27.25;22.00;;;;;10.88;37.85;101496.88;5015685;28;45495;-78
2023/12/03 10:46:26;;;;;;;;;34.00;28.00;;;;;10.99;37.59;101478.56;5020083;28;45469;-76
2023/12/03 10:48:52;;;;;;;;;36.75;32.50;;;;;11.31;37.51;101525.75;5015127;28;45487;-75
2023/12/03 10:51:18;;;;;;;;;31.00;28.00;;;;;11.30;37.27;101506.06;5015227;28;45341;-77
2023/12/03 10:53:44;;;;;;;;;30.25;28.75;;;;;11.29;36.68;101512.38;4997831;28;45467;-77
2023/12/03 10:56:09;;;;;;;;;34.75;28.75;;;;;11.34;37.15;101510.38;5014821;28;54467;-77
2023/12/03 10:58:39;;;;;;;;;28.50;25.00;;;;;11.49;36.97;101508.91;5015217;28;45268;-77
2023/12/03 11:01:08;;;;;;;;;27.75;26.50;;;;;11.57;36.76;101497.91;5015139;28;45408;-76
2023/12/03 11:04:08;;;;;;;;;29.75;27.25;;;;;11.50;36.34;101474.88;4998530;28;45352;-79
2023/12/03 11:06:34;;;;;;;;;28.75;25.00;;;;;11.36;36.57;101481.66;4990125;28;45515;-78
2023/12/03 11:09:01;;;;;;;;;28.25;25.75;;;;;11.50;36.57;101469.53;5026769;28;45625;-79
2023/12/03 11:11:27;;;;;;;;;31.00;26.00;;;;;11.88;36.46;101487.75;5022910;28;45537;-78
2023/12/03 11:13:56;;;;;;;;;27.75;24.75;;;;;11.95;35.85;101478.53;5014026;28;45390;-79
2023/12/03 11:16:25;;;;;;;;;29.50;22.00;;;;;12.07;35.70;101478.03;5015211;28;45200;-77
2023/12/03 11:19:08;;;;;;;;;32.50;27.25;;;;;12.15;35.85;101483.09;5014811;28;45468;-79
2023/12/03 11:21:42;;;;;;;;;29.75;26.00;;;;;12.19;35.62;101460.53;4997326;28;45465;-80
2023/12/03 11:24:26;;;;;;;;;25.50;24.50;;;;;12.26;35.78;101461.13;5015044;28;45490;-76
2023/12/03 11:26:52;;;;;;;;;32.00;25.25;;;;;12.26;35.49;101472.75;5014981;28;45212;-76
2023/12/03 11:29:17;;;;;;;;;22.75;20.75;;;;;12.08;35.75;101460.94;4996637;28;47182;-77
2023/12/03 11:31:42;;;;;;;;;28.75;26.50;;;;;12.03;35.40;101464.78;5014620;28;45676;-77
2023/12/03 11:34:10;;;;;;;;;32.25;27.00;;;;;11.86;36.21;101469.94;5014702;28;45494;-77
2023/12/03 11:36:45;;;;;;;;;25.75;25.50;;;;;11.73;36.29;101467.72;5014734;28;45670;-77
2023/12/03 11:39:10;;;;;;;;;32.50;26.50;;;;;11.80;36.37;101473.75;5014851;28;45345;-77
2023/12/03 11:41:42;;;;;;;;;32.50;23.50;;;;;11.88;35.75;101450.16;5024279;28;45475;-78
2023/12/03 11:44:26;;;;;;;;;28.50;23.00;;;;;11.85;35.98;101447.56;5014927;28;45160;-76
2023/12/03 11:47:05;;;;;;;;;23.25;21.50;;;;;11.80;36.01;101448.72;5016664;28;45323;-77
2023/12/03 11:49:33;;;;;;;;;31.00;26.00;;;;;11.81;36.24;101448.66;5014599;28;46370;-78
2023/12/03 11:51:59;;;;;;;;;31.75;23.00;;;;;11.80;35.85;101438.84;5014682;28;45337;-78
2023/12/03 11:54:28;;;;;;;;;29.00;25.00;;;;;11.86;35.55;101435.03;5014797;28;45371;-77
2023/12/03 11:56:54;;;;;;;;;29.50;23.75;;;;;11.73;35.69;101416.69;5014750;28;45493;-78
2023/12/03 11:59:21;;;;;;;;;34.25;24.00;;;;;11.90;35.35;101424.09;5014539;28;45384;-77
2023/12/03 12:01:47;;;;;;;;;17.00;17.00;;;;;11.84;35.61;101421.63;4997031;28;45472;-78
2023/12/03 12:04:22;;;;;;;;;23.00;22.50;;;;;11.84;35.03;101392.09;5014378;28;45312;-78
2023/12/03 12:06:48;;;;;;;;;25.50;23.00;;;;;11.85;34.94;101411.78;5014936;28;45325;-79
2023/12/03 12:09:23;;;;;;;;;22.50;20.50;;;;;11.97;35.02;101427.41;5014779;28;45380;-76
2023/12/03 12:11:49;;;;;;;;;31.25;25.00;;;;;12.18;34.77;101414.88;5015284;28;45399;-75
2023/12/03 12:14:18;;;;;;;;;25.25;24.75;;;;;12.26;34.31;101404.69;5015202;28;45392;-76
2023/12/03 12:16:46;;;;;;;;;26.00;21.50;;;;;12.50;34.17;101411.72;5015541;28;45321;-76
2023/12/03 12:19:13;;;;;;;;;27.00;23.25;;;;;12.43;34.13;101396.75;5015193;28;45511;-75
2023/12/03 12:22:05;;;;;;;;;25.25;23.00;;;;;12.86;33.98;101409.19;5015175;28;45349;-78
2023/12/03 12:24:30;;;;;;;;;20.00;20.00;;;;;13.12;33.60;101416.09;5011044;28;45329;-76
2023/12/03 12:26:56;;;;;;;;;29.50;25.75;;;;;13.07;32.95;101367.88;5000085;28;45439;-78
2023/12/03 12:29:22;;;;;;;;;19.50;18.50;;;;;13.30;33.28;101385.66;5017625;28;45466;-77
2023/12/03 12:31:47;;;;;;;;;25.25;21.00;;;;;13.48;32.91;101386.63;5004572;28;45718;-77
2023/12/03 12:34:13;;;;;;;;;25.50;23.75;;;;;13.56;33.09;101387.13;5017790;28;45350;-78
2023/12/03 12:36:43;;;;;;;;;22.50;22.50;;;;;13.78;32.66;101387.81;5017308;28;45262;-78
2023/12/03 12:39:22;;;;;;;;;24.00;23.00;;;;;13.83;32.42;101388.50;5017857;28;45461;-77
2023/12/03 12:41:47;;;;;;;;;22.50;21.00;;;;;13.52;32.92;101385.53;5026973;28;45423;-77
2023/12/03 12:44:13;;;;;;;;;25.25;23.00;;;;;13.66;32.91;101399.22;5017806;28;45230;-77
2023/12/03 12:46:59;;;;;;;;;27.75;23.25;;;;;13.60;32.51;101400.41;4999510;28;46551;-76
2023/12/03 12:49:24;;;;;;;;;20.75;19.75;;;;;13.55;32.68;101388.94;5016491;28;46172;-77
2023/12/03 12:51:49;;;;;;;;;23.25;20.75;;;;;13.62;32.49;101397.59;5016562;28;59406;-77
2023/12/03 12:54:15;;;;;;;;;22.25;22.00;;;;;13.60;32.68;101384.22;5017419;28;45324;-77
2023/12/03 12:56:43;;;;;;;;;24.50;21.50;;;;;13.64;32.63;101376.84;5017160;28;45429;-78
2023/12/03 12:59:08;;;;;;;;;20.25;19.00;;;;;13.41;33.06;101363.63;4999163;28;48329;-76
2023/12/03 13:01:33;;;;;;;;;17.25;17.25;;;;;13.39;32.46;101365.50;5017208;28;45374;-77
2023/12/03 13:03:59;;;;;;;;;20.25;19.75;;;;;13.47;32.84;101369.59;5016682;28;53629;-76
2023/12/03 13:06:26;;;;;;;;;19.75;19.00;;;;;13.37;33.04;101354.81;5016838;28;45401;-75
2023/12/03 13:08:51;;;;;;;;;22.25;18.50;;;;;13.40;32.88;101359.19;5016981;28;45459;-77
2023/12/03 13:11:16;;;;;;;;;20.50;19.50;;;;;13.55;32.85;101348.53;5016834;28;45323;-78
2023/12/03 13:13:42;;;;;;;;;24.25;20.75;;;;;13.70;32.83;101348.72;5017070;28;45317;-77
2023/12/03 13:16:08;;;;;;;;;18.00;12.00;;;;;13.62;33.08;101341.03;5016643;28;45337;-77
2023/12/03 13:18:36;;;;;;;;;22.00;21.25;;;;;13.63;33.31;101335.56;5016564;28;46173;-76
2023/12/03 13:21:01;;;;;;;;;24.00;19.50;;;;;13.94;33.00;101329.53;5016694;28;45396;-77
2023/12/03 13:23:26;;;;;;;;;22.00;16.75;;;;;13.97;32.94;101307.81;5017004;28;45290;-76
2023/12/03 13:25:52;;;;;;;;;20.25;16.00;;;;;13.85;33.16;101332.69;4998845;28;45843;-77
2023/12/03 13:28:18;;;;;;;;;23.00;21.50;;;;;14.02;32.99;101329.16;5016662;28;45867;-77
2023/12/03 13:30:43;;;;;;;;;22.00;18.75;;;;;13.78;32.92;101311.53;5000606;28;45357;-77
2023/12/03 13:33:09;;;;;;;;;13.00;11.00;;;;;13.77;32.94;101317.88;5016696;28;45437;-77
2023/12/03 13:35:34;;;;;;;;;26.00;22.00;;;;;13.76;33.46;101303.50;5031574;28;45417;-78
2023/12/03 13:37:59;;;;;;;;;21.25;19.25;;;;;13.96;32.80;101307.88;5015485;28;46242;-77
2023/12/03 13:40:24;;;;;;;;;22.50;18.00;;;;;13.73;33.41;101309.03;5018061;28;60780;-76
2023/12/03 13:42:51;;;;;;;;;23.75;17.00;;;;;13.87;33.04;101303.81;5005932;28;51943;-78
2023/12/03 13:45:17;;;;;;;;;24.50;21.50;;;;;13.62;33.36;101295.22;4998399;28;46863;-79
2023/12/03 13:47:42;;;;;;;;;16.50;16.50;;;;;13.62;33.24;101319.47;5015985;28;46317;-76
2023/12/03 13:50:08;;;;;;;;;23.50;20.00;;;;;13.63;33.03;101307.75;5016000;28;45379;-77
2023/12/03 13:52:34;;;;;;;;;17.75;15.25;;;;;13.63;33.09;101299.66;5016359;28;45559;-77
2023/12/03 13:55:00;;;;;;;;;20.00;16.75;;;;;13.59;33.37;101309.75;5016031;28;45523;-79
2023/12/03 13:57:26;;;;;;;;;21.00;20.00;;;;;13.45;33.27;101295.19;5015944;28;47418;-77
2023/12/03 13:59:52;;;;;;;;;21.00;20.75;;;;;13.51;33.18;101306.56;5016008;28;45246;-75
2023/12/03 14:02:17;;;;;;;;;19.75;17.75;;;;;13.54;33.22;101303.69;4998284;28;45431;-76
2023/12/03 14:04:42;;;;;;;;;23.00;21.25;;;;;13.60;33.61;101307.91;5015991;28;45270;-78
2023/12/03 14:07:07;;;;;;;;;20.00;16.00;;;;;13.72;32.74;101301.03;5015557;28;57969;-78
2023/12/03 14:09:33;;;;;;;;;19.75;19.75;;;;;13.75;33.00;101282.91;5015721;28;45406;-78
2023/12/03 14:11:59;;;;;;;;;17.75;15.75;;;;;13.80;32.53;101299.69;5016080;28;45217;-77
2023/12/03 14:14:24;;;;;;;;;18.50;15.25;;;;;13.70;33.06;101278.66;5015732;28;45411;-79
2023/12/03 14:16:56;;;;;;;;;19.50;17.75;;;;;13.91;32.82;101296.47;5015643;28;46052;-76
2023/12/03 14:19:22;;;;;;;;;15.75;14.50;;;;;13.85;32.33;101288.69;5015867;28;45439;-77
2023/12/03 14:21:48;;;;;;;;;17.75;17.75;;;;;13.92;32.51;101306.31;5015761;28;45357;-79
2023/12/03 14:24:14;;;;;;;;;20.00;18.75;;;;;13.94;32.14;101294.50;5015683;28;45477;-78
2023/12/03 14:26:41;;;;;;;;;17.00;15.75;;;;;14.02;32.14;101303.06;4997878;28;47279;-79
2023/12/03 14:29:07;;;;;;;;;18.00;15.75;;;;;13.81;32.54;101287.97;5015356;28;45412;-78
2023/12/03 14:31:32;;;;;;;;;20.00;15.50;;;;;13.80;32.29;101294.31;5015659;28;45325;-78
2023/12/03 14:33:57;;;;;;;;;13.50;11.75;;;;;13.77;32.51;101297.19;5015133;28;45608;-79
2023/12/03 14:36:25;;;;;;;;;17.25;14.50;;;;;13.79;32.83;101292.56;5015447;28;47265;-77
2023/12/03 14:38:51;;;;;;;;;15.25;14.00;;;;;13.88;32.71;101294.78;4997710;28;45405;-77
2023/12/03 14:41:17;;;;;;;;;26.50;21.50;;;;;13.92;32.63;101284.75;5025333;28;45238;-78
2023/12/03 14:43:42;;;;;;;;;17.50;16.25;;;;;14.25;32.39;101276.72;5016167;28;45791;-77
2023/12/03 14:46:08;;;;;;;;;18.00;15.75;;;;;14.44;31.30;101266.75;5015387;28;46223;-77
2023/12/03 14:48:33;;;;;;;;;21.00;20.25;;;;;14.64;31.48;101273.75;5014548;28;53007;-76
2023/12/03 14:50:58;;;;;;;;;23.50;21.75;;;;;14.81;31.27;101260.19;4997631;28;45340;-75
2023/12/03 14:53:24;;;;;;;;;23.50;16.75;;;;;14.85;30.61;101260.91;5015613;28;45256;-79
2023/12/03 14:55:49;;;;;;;;;17.00;16.25;;;;;14.77;30.64;101256.81;5015892;28;45376;-76
2023/12/03 14:58:15;;;;;;;;;22.75;20.25;;;;;14.74;30.94;101256.97;5015402;28;45519;-77
2023/12/03 15:00:43;;;;;;;;;14.50;14.50;;;;;14.75;30.85;101265.94;5015925;28;45492;-77
2023/12/03 15:03:08;;;;;;;;;27.25;25.75;;;;;14.71;30.66;101261.69;5015141;28;45459;-77
2023/12/03 15:05:34;;;;;;;;;18.75;17.50;;;;;14.68;31.02;101262.72;5015395;28;45539;-77
2023/12/03 15:07:59;;;;;;;;;18.00;16.50;;;;;14.55;30.93;101277.81;5015346;28;45234;-76
2023/12/03 15:10:25;;;;;;;;;22.75;21.50;;;;;14.27;31.66;101261.34;5015168;28;45399;-76
2023/12/03 15:12:50;;;;;;;;;24.00;23.00;;;;;14.26;31.76;101259.59;5014690;28;45543;-76
2023/12/03 15:15:19;;;;;;;;;23.00;22.75;;;;;14.35;31.43;101261.81;5014834;28;45990;-78
2023/12/03 15:17:44;;;;;;;;;23.75;23.75;;;;;14.23;31.90;101254.34;5014640;28;45518;-77
2023/12/03 15:20:10;;;;;;;;;25.50;24.00;;;;;14.18;31.69;101251.03;5015083;28;45312;-77
2023/12/03 15:22:35;;;;;;;;;26.75;22.50;;;;;14.16;31.78;101272.69;5014595;28;45485;-77
2023/12/03 15:25:00;;;;;;;;;25.75;24.00;;;;;13.92;32.38;101257.78;4996945;28;46992;-78
2023/12/03 15:27:26;;;;;;;;;23.00;23.00;;;;;13.93;32.04;101252.31;5014831;28;54809;-76
2023/12/03 15:29:51;;;;;;;;;29.75;25.75;;;;;13.67;32.52;101222.25;5014922;28;46438;-76
2023/12/03 15:32:16;;;;;;;;;26.25;22.75;;;;;13.58;32.86;101256.81;5013629;28;61326;-78
2023/12/03 15:34:42;;;;;;;;;28.25;24.25;;;;;13.53;33.22;101242.69;5015023;28;45377;-79
2023/12/03 15:37:07;;;;;;;;;25.75;24.00;;;;;13.19;32.85;101202.22;5014911;28;45422;-77
2023/12/03 15:39:32;;;;;;;;;33.50;25.75;;;;;13.43;33.07;101236.03;4997177;28;45396;-78
2023/12/03 15:41:58;;;;;;;;;23.00;23.00;;;;;13.47;33.26;101245.69;5024563;28;60004;-77
2023/12/03 15:44:25;;;;;;;;;26.50;23.50;;;;;13.44;33.08;101244.97;4996827;28;46246;-77
2023/12/03 15:46:50;;;;;;;;;24.25;20.75;;;;;13.33;33.54;101244.63;5014450;28;45380;-76
2023/12/03 15:49:15;;;;;;;;;24.50;21.00;;;;;13.32;33.63;101242.88;5014512;28;45304;-78
2023/12/03 15:51:41;;;;;;;;;20.00;17.75;;;;;13.29;33.50;101229.56;5014184;28;45334;-76
2023/12/03 15:54:06;;;;;;;;;25.00;19.25;;;;;13.16;34.11;101227.50;5015719;28;66057;-78
2023/12/03 15:56:31;;;;;;;;;26.25;19.50;;;;;12.98;34.03;101230.16;5005026;28;45221;-77
2023/12/03 15:58:56;;;;;;;;;25.50;23.75;;;;;12.94;34.48;101207.88;5026818;28;47059;-77
2023/12/03 16:01:22;;;;;;;;;24.50;22.25;;;;;12.83;34.54;101191.41;5026097;28;45322;-79
2023/12/03 16:03:47;;;;;;;;;23.50;22.00;;;;;12.93;34.48;101208.84;5017845;28;45342;-76